Time;durP1;ratioP1;P1;durP2;ratioP2;P2;SDS_P1;SDS_P2;PMS_P1;PMS_P2;Temp;Humidity;BMP_temperature;BMP_pressure;BME280_temperature;BME280_humidity;BME280_pressure;Samples;Min_cycle;Max_cycle;Signal;HPM_P1;HPM_P2
2023/09/28 00:00:35;;;;;;;10.75;3.88;;;;;;;18.32;51.38;95438.41;5005967;28;20520;-78
2023/09/28 00:03:01;;;;;;;15.13;4.25;;;;;;;18.86;51.13;95528.34;5011109;28;20120;-78
2023/09/28 00:05:27;;;;;;;12.10;4.10;;;;;;;18.54;51.20;95489.28;4980421;28;20130;-78
2023/09/28 00:07:55;;;;;;;14.38;4.28;;;;;;;18.79;51.55;95523.44;5007212;28;20041;-78
2023/09/28 00:10:20;;;;;;;13.77;3.97;;;;;;;18.52;51.67;95504.94;5012522;28;20036;-79
2023/09/28 00:12:48;;;;;;;18.33;4.72;;;;;;;18.40;51.82;95488.66;4993416;28;20097;-78
2023/09/28 00:15:15;;;;;;;6.93;3.70;;;;;;;18.57;52.11;95525.50;4995695;28;20489;-78
2023/09/28 00:17:41;;;;;;;14.25;4.72;;;;;;;18.58;52.36;95521.72;5010826;28;20076;-78
2023/09/28 00:20:17;;;;;;;19.30;4.32;;;;;;;18.48;52.69;95510.16;5012430;28;20053;-78
2023/09/28 00:22:51;;;;;;;11.02;4.15;;;;;;;18.56;52.76;95515.84;5012390;28;20053;-78
2023/09/28 00:25:19;;;;;;;20.05;4.95;;;;;;;18.58;52.74;95510.97;5026867;28;20038;-78
2023/09/28 00:27:47;;;;;;;14.27;4.97;;;;;;;18.38;53.42;95523.09;5012310;28;20044;-78
2023/09/28 00:30:18;;;;;;;23.77;5.30;;;;;;;18.16;54.32;95512.50;5027019;28;20041;-78
2023/09/28 00:32:44;;;;;;;13.38;4.57;;;;;;;18.25;54.03;95519.44;4994948;28;20038;-78
2023/09/28 00:35:10;;;;;;;8.50;4.50;;;;;;;17.95;54.64;95498.84;5027836;28;20053;-78
2023/09/28 00:37:36;;;;;;;12.73;4.50;;;;;;;18.03;55.15;95527.59;4995105;28;20038;-78
2023/09/28 00:40:28;;;;;;;12.90;4.95;;;;;;;17.56;55.70;95473.59;4994582;28;20037;-78
2023/09/28 00:42:49;;;;;;;15.15;6.50;;;;;;;17.93;55.42;95504.50;5012044;28;20037;-84
2023/09/28 00:45:15;;;;;;;10.02;4.78;;;;;;;18.06;55.29;95513.56;5014191;28;20088;-84
2023/09/28 00:47:41;;;;;;;11.90;5.07;;;;;;;17.60;56.18;95490.66;5027990;28;20534;-84
2023/09/28 00:50:10;;;;;;;10.63;4.47;;;;;;;17.78;55.93;95501.47;5005643;28;20021;-84
2023/09/28 00:52:40;;;;;;;12.38;5.43;;;;;;;17.36;56.03;95436.63;4983408;28;20084;-83
2023/09/28 00:55:08;;;;;;;12.73;4.57;;;;;;;17.41;56.94;95492.78;5011590;28;20061;-84
2023/09/28 00:57:35;;;;;;;14.27;4.68;;;;;;;16.90;57.74;95469.97;5011073;28;20451;-83
2023/09/28 01:00:27;;;;;;;23.65;4.40;;;;;;;17.32;57.75;95518.75;4994380;28;20063;-84
2023/09/28 01:02:51;;;;;;;8.85;4.68;;;;;;;16.67;57.88;95424.75;5011872;28;20048;-84
2023/09/28 01:05:38;;;;;;;14.73;4.60;;;;;;;17.33;58.14;95517.66;5012804;28;20088;-82
2023/09/28 01:08:14;;;;;;;12.88;5.30;;;;;;;17.33;57.97;95521.13;5012307;28;20026;-83
2023/09/28 01:10:40;;;;;;;12.75;4.88;;;;;;;17.15;58.09;95494.56;5007579;28;20026;-83
2023/09/28 01:13:11;;;;;;;7.95;4.40;;;;;;;17.18;58.56;95516.16;4993353;28;20768;-84
2023/09/28 01:15:41;;;;;;;10.63;4.90;;;;;;;16.89;59.04;95487.13;4992658;28;20437;-84
2023/09/28 01:18:17;;;;;;;14.50;5.13;;;;;;;17.14;58.90;95503.69;4975367;28;20058;-83
2023/09/28 01:20:52;;;;;;;11.90;5.25;;;;;;;16.30;58.91;95393.78;4987269;28;20072;-83
2023/09/28 01:23:17;;;;;;;12.48;5.20;;;;;;;17.15;58.71;95508.75;4994300;28;20042;-84
2023/09/28 01:25:47;;;;;;;11.07;5.10;;;;;;;17.11;58.35;95485.53;5011201;28;20405;-83
2023/09/28 01:28:13;;;;;;;13.05;4.72;;;;;;;17.40;58.11;95515.31;4994188;28;20562;-80
2023/09/28 01:30:39;;;;;;;13.90;5.47;;;;;;;17.08;57.65;95449.44;4990389;28;20038;-84
2023/09/28 01:33:05;;;;;;;10.32;4.85;;;;;;;17.27;57.67;95492.09;4992285;28;20034;-83
2023/09/28 01:35:30;;;;;;;12.32;5.45;;;;;;;17.25;57.68;95478.97;4993064;28;20133;-84
2023/09/28 01:38:17;;;;;;;9.50;4.82;;;;;;;17.54;57.45;95510.69;4978704;28;20032;-84
2023/09/28 01:40:44;;;;;;;15.57;4.90;;;;;;;17.23;57.24;95459.75;5007656;28;20049;-81
2023/09/28 01:43:10;;;;;;;19.67;4.57;;;;;;;17.17;57.66;95469.00;5010150;28;20052;-83
2023/09/28 01:45:35;;;;;;;11.55;5.18;;;;;;;17.45;58.02;95507.16;4977257;28;20027;-84
2023/09/28 01:48:03;;;;;;;13.25;4.65;;;;;;;17.42;58.02;95499.72;5002614;28;20037;-84
2023/09/28 01:50:28;;;;;;;7.03;4.85;;;;;;;17.44;58.13;95508.25;5010457;28;20029;-84
2023/09/28 01:52:53;;;;;;;8.48;4.55;;;;;;;17.42;58.13;95510.44;4997218;28;20516;-82
2023/09/28 01:55:19;;;;;;;15.50;4.93;;;;;;;17.29;58.24;95498.72;5009185;28;20037;-81
2023/09/28 01:57:44;;;;;;;11.88;5.10;;;;;;;17.29;58.28;95492.56;4993586;28;20044;-82
2023/09/28 02:00:18;;;;;;;11.25;4.93;;;;;;;17.41;57.98;95514.22;4993116;28;20455;-82
2023/09/28 02:02:44;;;;;;;14.68;5.65;;;;;;;17.10;59.06;95508.84;5012496;28;20501;-82
2023/09/28 02:05:14;;;;;;;14.18;6.07;;;;;;;17.26;58.76;95514.63;5024222;28;20053;-82
2023/09/28 02:07:40;;;;;;;14.07;5.50;;;;;;;16.88;59.20;95480.19;4996257;28;20585;-82
2023/09/28 02:10:06;;;;;;;10.18;4.93;;;;;;;17.12;59.07;95506.66;5011565;28;20026;-82
2023/09/28 02:12:32;;;;;;;14.10;4.65;;;;;;;17.02;59.01;95484.69;5011711;28;20109;-82
2023/09/28 02:15:00;;;;;;;13.93;5.47;;;;;;;17.12;59.20;95516.59;5010910;28;20112;-82
2023/09/28 02:17:28;;;;;;;11.27;5.03;;;;;;;16.95;59.21;95491.25;5012263;28;20034;-82
2023/09/28 02:19:53;;;;;;;11.85;4.32;;;;;;;16.83;59.42;95471.50;4982735;28;20034;-82
2023/09/28 02:22:19;;;;;;;9.60;4.78;;;;;;;16.69;59.92;95490.31;5004742;28;20088;-82
2023/09/28 02:24:46;;;;;;;11.38;5.35;;;;;;;16.85;60.13;95523.69;4980345;28;20031;-82
2023/09/28 02:27:12;;;;;;;15.15;5.55;;;;;;;16.93;59.68;95512.22;5007326;28;20065;-82
2023/09/28 02:29:38;;;;;;;16.52;5.00;;;;;;;16.79;59.65;95483.91;5011655;28;20083;-82
2023/09/28 02:32:03;;;;;;;22.95;6.50;;;;;;;16.65;60.95;95517.97;4993865;28;20381;-82
2023/09/28 02:34:29;;;;;;;17.80;5.55;;;;;;;16.78;60.42;95527.88;5011849;28;20558;-82
2023/09/28 02:36:54;;;;;;;11.55;4.45;;;;;;;16.61;60.68;95496.38;4993739;28;20026;-81
2023/09/28 02:39:20;;;;;;;20.20;6.18;;;;;;;16.83;60.13;95530.41;5011088;28;20041;-82
2023/09/28 02:41:45;;;;;;;16.10;5.50;;;;;;;16.83;60.36;95522.38;5007371;28;20050;-82
2023/09/28 02:44:10;;;;;;;10.68;5.95;;;;;;;16.35;60.66;95455.19;4995467;28;20038;-82
2023/09/28 02:46:36;;;;;;;16.10;5.32;;;;;;;16.34;60.43;95456.28;5009394;28;20034;-82
2023/09/28 02:49:02;;;;;;;17.25;6.43;;;;;;;16.27;60.86;95472.75;5011626;28;20025;-82
2023/09/28 02:51:28;;;;;;;11.05;5.03;;;;;;;16.50;61.24;95532.47;5011435;28;20068;-81
2023/09/28 02:53:53;;;;;;;14.55;6.18;;;;;;;16.65;61.01;95534.84;5012446;28;20109;-82
2023/09/28 02:56:18;;;;;;;14.35;5.57;;;;;;;16.66;61.33;95549.81;5015557;28;20418;-82
2023/09/28 02:58:47;;;;;;;19.60;5.18;;;;;;;16.03;61.53;95456.97;5015310;28;20034;-82
2023/09/28 03:01:12;;;;;;;8.13;5.53;;;;;;;16.42;61.38;95504.53;5015198;28;20105;-81
2023/09/28 03:03:38;;;;;;;11.15;5.10;;;;;;;16.21;61.36;95485.47;5012926;28;20460;-78
2023/09/28 03:06:04;;;;;;;14.50;5.28;;;;;;;16.42;61.64;95525.97;5013803;28;20092;-78
2023/09/28 03:08:31;;;;;;;13.10;5.22;;;;;;;16.59;61.95;95550.22;5012991;28;20038;-78
2023/09/28 03:10:56;;;;;;;14.00;5.57;;;;;;;16.67;61.58;95548.72;5012734;28;20184;-78
2023/09/28 03:13:22;;;;;;;19.42;5.82;;;;;;;16.04;61.78;95487.19;5013985;28;20519;-78
2023/09/28 03:15:49;;;;;;;19.75;5.90;;;;;;;16.26;62.09;95522.03;5013819;28;20052;-79
2023/09/28 03:18:14;;;;;;;15.52;5.97;;;;;;;16.38;61.72;95537.56;5012412;28;20029;-78
2023/09/28 03:20:44;;;;;;;14.43;5.45;;;;;;;16.35;61.67;95533.59;5011975;28;20095;-78
2023/09/28 03:23:09;;;;;;;10.32;5.40;;;;;;;16.08;62.31;95509.59;5012221;28;20037;-78
2023/09/28 03:25:35;;;;;;;13.43;5.90;;;;;;;16.35;62.14;95538.97;5013917;28;20096;-78
2023/09/28 03:28:01;;;;;;;14.15;5.78;;;;;;;16.10;61.98;95504.72;5012449;28;20034;-78
2023/09/28 03:30:28;;;;;;;20.88;6.38;;;;;;;16.16;62.30;95496.28;5014036;28;20093;-78
2023/09/28 03:32:54;;;;;;;14.05;5.55;;;;;;;16.23;62.32;95509.25;4995998;28;20397;-78
2023/09/28 03:35:21;;;;;;;21.67;6.93;;;;;;;16.32;62.49;95539.56;5013868;28;20344;-78
2023/09/28 03:37:47;;;;;;;19.35;5.65;;;;;;;16.13;62.45;95502.25;5012088;28;20029;-78
2023/09/28 03:40:14;;;;;;;20.23;7.07;;;;;;;16.33;62.45;95533.09;5013529;28;20026;-78
2023/09/28 03:42:44;;;;;;;19.85;5.43;;;;;;;16.41;62.44;95540.44;4995717;28;20033;-78
2023/09/28 03:45:14;;;;;;;14.43;5.93;;;;;;;16.27;62.74;95525.50;5028591;28;20112;-78
2023/09/28 03:47:42;;;;;;;11.10;5.57;;;;;;;16.44;62.40;95547.88;5013817;28;20045;-78
2023/09/28 03:50:10;;;;;;;10.90;5.63;;;;;;;16.48;62.20;95550.72;4995627;28;20045;-78
2023/09/28 03:52:39;;;;;;;21.90;6.55;;;;;;;16.36;62.35;95532.53;4995747;28;20416;-78
2023/09/28 03:55:08;;;;;;;14.90;5.90;;;;;;;16.41;62.60;95547.66;5013280;28;20029;-78
2023/09/28 03:57:34;;;;;;;13.60;5.85;;;;;;;16.25;62.85;95541.06;5030649;28;20038;-78
2023/09/28 03:59:59;;;;;;;11.65;6.32;;;;;;;16.01;63.11;95518.03;5003937;28;20103;-78
2023/09/28 04:02:28;;;;;;;14.35;6.85;;;;;;;16.02;63.65;95529.50;5011209;28;20037;-78
2023/09/28 04:04:56;;;;;;;16.23;6.25;;;;;;;16.06;63.60;95539.31;4990187;28;21048;-80
2023/09/28 04:07:22;;;;;;;17.42;6.53;;;;;;;16.11;63.24;95511.66;4988190;28;20060;-79
2023/09/28 04:09:48;;;;;;;19.40;6.68;;;;;;;16.23;62.69;95540.56;4995963;28;20567;-84
2023/09/28 04:12:14;;;;;;;16.80;6.20;;;;;;;16.21;62.88;95532.84;5011173;28;21508;-84
2023/09/28 04:14:39;;;;;;;16.27;6.07;;;;;;;16.22;62.92;95521.06;4986645;28;20172;-85
2023/09/28 04:17:05;;;;;;;13.95;6.05;;;;;;;16.18;62.67;95510.16;5009597;28;20068;-83
2023/09/28 04:19:30;;;;;;;22.13;7.53;;;;;;;16.42;62.23;95527.84;5010851;28;20037;-82
2023/09/28 04:21:56;;;;;;;22.73;7.18;;;;;;;16.31;62.27;95516.59;4994562;28;20034;-80
2023/09/28 04:24:22;;;;;;;29.35;8.85;;;;;;;15.99;62.91;95511.38;5000261;28;20436;-79
2023/09/28 04:26:47;;;;;;;20.33;7.22;;;;;;;15.74;63.26;95483.25;4990722;28;20045;-81
2023/09/28 04:29:13;;;;;;;22.60;7.95;;;;;;;16.06;62.99;95512.56;4993630;28;20072;-81
2023/09/28 04:31:40;;;;;;;18.90;7.63;;;;;;;15.95;62.25;95479.06;4991677;28;20026;-83
2023/09/28 04:34:07;;;;;;;28.13;9.00;;;;;;;16.16;62.23;95524.94;4958132;28;20029;-82
2023/09/28 04:36:33;;;;;;;19.75;7.47;;;;;;;15.96;62.59;95504.72;4928932;28;20356;-82
2023/09/28 04:38:59;;;;;;;25.70;6.57;;;;;;;15.90;62.19;95483.75;4950923;28;20127;-82
2023/09/28 04:41:24;;;;;;;25.52;7.78;;;;;;;16.12;61.87;95532.75;4937995;28;20185;-79
2023/09/28 04:43:50;;;;;;;29.63;7.50;;;;;;;16.18;61.47;95517.38;4952928;28;20088;-85
2023/09/28 04:46:15;;;;;;;30.58;8.15;;;;;;;15.68;61.53;95442.47;4956485;28;20625;-84
2023/09/28 04:48:41;;;;;;;24.83;8.18;;;;;;;15.54;61.48;95392.78;4933582;28;20699;-82
2023/09/28 04:51:07;;;;;;;25.70;7.55;;;;;;;15.40;61.52;95366.84;4931296;28;20646;-87
2023/09/28 04:53:32;;;;;;;16.58;8.35;;;;;;;16.64;61.23;95552.00;4937561;28;20086;-82
2023/09/28 04:55:58;;;;;;;28.73;8.85;;;;;;;16.30;61.35;95490.13;4947178;28;20031;-86
2023/09/28 04:58:23;;;;;;;28.02;9.68;;;;;;;16.24;60.98;95484.09;4948093;28;20467;-84
2023/09/28 05:00:49;;;;;;;34.08;10.05;;;;;;;16.61;60.57;95504.44;4952699;28;20041;-86
2023/09/28 05:03:14;;;;;;;29.25;10.32;;;;;;;16.84;60.75;95538.16;4982432;23;20056;-81
2023/09/28 05:05:39;;;;;;;29.38;9.52;;;;;;;17.06;60.34;95549.97;4929913;28;20439;-80
2023/09/28 05:08:05;;;;;;;29.77;9.52;;;;;;;17.28;59.76;95588.28;4918365;29;20114;-81
2023/09/28 05:10:31;;;;;;;25.90;8.80;;;;;;;16.86;59.61;95519.88;4935964;28;20043;-81
2023/09/28 05:12:57;;;;;;;27.73;9.73;;;;;;;17.10;59.34;95541.00;4926360;28;20476;-80
2023/09/28 05:15:23;;;;;;;30.85;8.68;;;;;;;17.36;60.00;95581.38;4925334;28;20476;-80
2023/09/28 05:17:48;;;;;;;34.70;8.93;;;;;;;17.18;60.37;95542.16;4926607;28;20041;-80
2023/09/28 05:20:14;;;;;;;28.88;9.95;;;;;;;17.17;60.68;95536.00;4920614;29;20047;-80
2023/09/28 05:22:40;;;;;;;28.85;8.95;;;;;;;17.28;60.87;95547.28;4921967;28;20035;-80
2023/09/28 05:25:06;;;;;;;29.45;9.52;;;;;;;17.49;60.27;95569.78;4911888;29;20130;-79
2023/09/28 05:27:33;;;;;;;42.63;9.35;;;;;;;17.38;59.98;95547.03;4931087;28;20043;-81
2023/09/28 05:29:58;;;;;;;25.80;9.20;;;;;;;17.50;60.26;95565.22;4928573;29;20474;-82
2023/09/28 05:32:24;;;;;;;27.23;9.75;;;;;;;17.69;59.30;95577.34;4919828;29;20066;-81
2023/09/28 05:34:50;;;;;;;28.75;8.45;;;;;;;17.84;59.25;95586.09;4930359;29;20357;-80
2023/09/28 05:37:15;;;;;;;21.42;8.77;;;;;;;17.82;60.14;95593.66;4951464;28;20066;-82
2023/09/28 05:39:41;;;;;;;25.80;8.65;;;;;;;17.75;59.27;95564.59;4947387;28;20043;-80
2023/09/28 05:42:07;;;;;;;22.08;8.77;;;;;;;17.80;59.39;95571.69;4923633;28;20063;-81
2023/09/28 05:44:33;;;;;;;26.58;7.82;;;;;;;17.84;58.48;95581.53;4927915;29;20047;-80
2023/09/28 05:46:59;;;;;;;27.40;6.38;;;;;;;18.07;57.87;95592.97;4923280;29;20047;-81
2023/09/28 05:49:26;;;;;;;20.02;5.97;;;;;;;18.19;56.47;95603.91;4927279;28;20078;-82
2023/09/28 05:51:52;;;;;;;21.20;5.18;;;;;;;17.93;54.92;95562.75;4922293;29;20281;-81
2023/09/28 05:54:19;;;;;;;14.57;4.95;;;;;;;18.10;54.95;95582.41;4940881;28;20150;-82
2023/09/28 05:56:44;;;;;;;12.80;5.07;;;;;;;18.00;54.40;95560.44;4939476;28;20081;-81
2023/09/28 05:59:10;;;;;;;17.58;4.72;;;;;;;18.17;53.66;95578.47;4927698;29;20044;-82
2023/09/28 06:01:37;;;;;;;16.25;4.93;;;;;;;18.18;53.71;95582.72;4932844;28;20139;-82
2023/09/28 06:04:04;;;;;;;18.70;5.40;;;;;;;18.21;53.11;95572.19;4953363;28;20062;-86
2023/09/28 06:06:30;;;;;;;21.85;4.65;;;;;;;18.39;52.65;95570.31;4967900;28;20065;-82
2023/09/28 06:08:55;;;;;;;22.50;4.63;;;;;;;18.21;51.81;95544.53;4965745;28;20501;-82
2023/09/28 06:11:21;;;;;;;16.92;4.68;;;;;;;18.72;51.02;95592.19;4965802;28;20101;-81
2023/09/28 06:13:47;;;;;;;18.05;3.88;;;;;;;18.67;50.46;95601.22;4951106;28;20038;-83
2023/09/28 06:16:13;;;;;;;18.67;5.13;;;;;;;18.70;50.76;95591.72;4958670;28;20089;-82
2023/09/28 06:18:41;;;;;;;21.88;5.20;;;;;;;18.67;51.27;95603.09;4970088;28;20066;-82
2023/09/28 06:21:06;;;;;;;17.80;5.10;;;;;;;18.68;50.96;95577.81;4966579;28;20854;-80
2023/09/28 06:23:33;;;;;;;16.92;5.28;;;;;;;18.86;50.76;95598.22;4961322;28;20381;-81
2023/09/28 06:25:59;;;;;;;18.52;5.13;;;;;;;18.53;50.84;95573.69;4980376;28;20082;-81
2023/09/28 06:28:25;;;;;;;16.73;5.60;;;;;;;18.57;50.71;95557.75;4955603;28;20046;-83
2023/09/28 06:30:54;;;;;;;16.92;5.55;;;;;;;18.66;50.40;95558.53;4977352;28;20047;-81
2023/09/28 06:33:24;;;;;;;15.18;5.93;;;;;;;19.05;50.80;95595.22;4967279;28;20435;-82
2023/09/28 06:35:50;;;;;;;17.80;6.00;;;;;;;19.12;51.02;95595.53;4967495;28;20077;-79
2023/09/28 06:38:16;;;;;;;13.35;4.90;;;;;;;19.16;50.96;95589.19;4976382;28;20031;-81
2023/09/28 06:40:45;;;;;;;20.00;6.10;;;;;;;19.03;50.96;95565.97;4964022;28;20049;-80
2023/09/28 06:43:17;;;;;;;23.63;4.50;;;;;;;19.02;50.48;95555.53;4968902;28;20039;-82
2023/09/28 06:45:43;;;;;;;18.77;5.03;;;;;;;19.17;50.15;95581.94;4967342;28;20046;-82
2023/09/28 06:48:09;;;;;;;13.60;4.47;;;;;;;19.03;50.42;95539.09;4977058;28;20066;-81
2023/09/28 06:50:35;;;;;;;23.30;5.22;;;;;;;19.16;49.91;95554.25;4978947;28;20038;-82
2023/09/28 06:53:02;;;;;;;24.92;4.95;;;;;;;19.48;49.74;95614.03;4985268;28;20034;-80
2023/09/28 06:55:28;;;;;;;28.17;7.03;;;;;;;19.17;49.36;95571.19;4993207;28;20046;-82
2023/09/28 06:57:54;;;;;;;19.65;5.35;;;;;;;19.40;49.13;95596.78;4981821;28;20034;-82
2023/09/28 07:00:20;;;;;;;25.52;6.40;;;;;;;19.08;49.12;95525.47;4970690;28;20069;-81
2023/09/28 07:02:49;;;;;;;20.63;5.43;;;;;;;19.43;49.11;95565.78;4993159;28;20459;-82
2023/09/28 07:05:16;;;;;;;14.15;4.40;;;;;;;19.77;48.47;95618.72;4989176;28;20026;-82
2023/09/28 07:07:44;;;;;;;16.10;4.00;;;;;;;19.81;48.55;95612.38;4994118;28;20058;-84
2023/09/28 07:10:12;;;;;;;9.23;3.97;;;;;;;19.86;49.24;95625.66;4977852;28;20065;-83
2023/09/28 07:12:38;;;;;;;15.75;4.53;;;;;;;19.71;49.52;95588.50;4989498;28;20041;-82
2023/09/28 07:15:05;;;;;;;19.10;4.18;;;;;;;19.84;49.40;95608.25;4949744;28;20536;-81
2023/09/28 07:17:30;;;;;;;14.25;4.32;;;;;;;19.79;49.24;95590.38;4975541;28;20049;-81
2023/09/28 07:19:56;;;;;;;25.33;4.38;;;;;;;19.85;48.99;95581.03;4941484;28;20038;-82
2023/09/28 07:22:22;;;;;;;19.98;4.93;;;;;;;20.21;48.72;95628.25;4960951;28;20042;-81
2023/09/28 07:24:48;;;;;;;18.88;4.18;;;;;;;20.20;48.50;95607.81;4974645;28;20136;-81
2023/09/28 07:27:13;;;;;;;17.35;4.10;;;;;;;19.81;48.74;95555.88;4984624;28;20065;-81
2023/09/28 07:29:39;;;;;;;18.33;4.00;;;;;;;20.18;48.83;95599.28;4976364;28;20117;-82
2023/09/28 07:32:06;;;;;;;24.90;4.43;;;;;;;20.42;49.19;95623.75;4984251;28;20069;-82
2023/09/28 07:34:32;;;;;;;19.50;4.82;;;;;;;20.24;48.42;95585.28;4996116;28;20061;-82
2023/09/28 07:36:57;;;;;;;18.65;3.85;;;;;;;20.55;48.11;95609.25;4979693;28;20417;-82
2023/09/28 07:39:23;;;;;;;12.60;4.57;;;;;;;20.32;48.25;95565.59;4969850;28;20050;-81
2023/09/28 07:41:51;;;;;;;18.25;3.92;;;;;;;20.37;49.24;95584.28;4978195;28;20143;-82
2023/09/28 07:44:18;;;;;;;10.15;3.67;;;;;;;20.33;49.03;95567.22;4986438;28;20047;-81
2023/09/28 07:46:45;;;;;;;13.48;3.58;;;;;;;20.73;48.63;95605.34;4983691;28;20464;-81
2023/09/28 07:49:10;;;;;;;15.05;4.22;;;;;;;20.61;47.71;95588.28;4974835;28;20027;-82
2023/09/28 07:51:36;;;;;;;13.52;3.63;;;;;;;20.80;46.91;95594.03;4980865;28;20431;-82
2023/09/28 07:54:01;;;;;;;18.50;4.72;;;;;;;20.96;47.57;95616.59;4961819;28;20050;-83
2023/09/28 07:56:27;;;;;;;16.77;4.20;;;;;;;21.00;47.16;95593.25;4973125;28;20513;-82
2023/09/28 07:58:52;;;;;;;17.75;3.65;;;;;;;21.05;46.81;95616.53;4975570;28;20022;-83
2023/09/28 08:01:18;;;;;;;17.08;4.32;;;;;;;21.15;46.31;95610.72;4973829;28;20070;-82
2023/09/28 08:03:44;;;;;;;19.38;4.20;;;;;;;21.13;46.17;95592.16;4947437;28;20081;-83
2023/09/28 08:06:10;;;;;;;26.23;4.40;;;;;;;21.24;46.85;95621.47;4955405;28;20420;-82
2023/09/28 08:08:37;;;;;;;11.70;3.47;;;;;;;21.26;46.36;95600.38;4939853;28;20033;-82
2023/09/28 08:11:02;;;;;;;24.83;4.10;;;;;;;21.08;45.26;95573.50;4961665;28;20423;-82
2023/09/28 08:13:28;;;;;;;13.00;3.88;;;;;;;21.08;43.76;95564.63;4947148;28;20038;-83
2023/09/28 08:15:54;;;;;;;9.90;3.45;;;;;;;21.32;43.52;95588.25;4952211;28;20030;-82
2023/09/28 08:18:19;;;;;;;9.68;3.25;;;;;;;20.26;43.78;95455.69;4976358;28;20051;-82
2023/09/28 08:20:46;;;;;;;12.10;3.75;;;;;;;21.22;43.47;95599.44;4976002;28;20062;-83
2023/09/28 08:23:11;;;;;;;15.32;3.92;;;;;;;20.96;43.76;95551.09;4971507;28;20063;-82
2023/09/28 08:25:37;;;;;;;17.58;3.30;;;;;;;21.22;43.63;95604.81;4968492;28;20036;-82
2023/09/28 08:28:03;;;;;;;11.13;3.60;;;;;;;21.21;43.44;95568.22;4957692;28;20076;-83
2023/09/28 08:30:28;;;;;;;9.95;3.35;;;;;;;21.37;43.51;95615.00;4969068;28;20030;-82
2023/09/28 08:32:54;;;;;;;15.70;3.92;;;;;;;21.51;43.35;95602.81;4975582;28;20392;-82
2023/09/28 08:35:20;;;;;;;15.90;4.07;;;;;;;21.45;43.60;95593.34;4950707;28;20035;-82
2023/09/28 08:37:46;;;;;;;8.48;3.05;;;;;;;21.68;43.47;95609.94;4969364;28;20030;-83
2023/09/28 08:40:13;;;;;;;6.78;3.30;;;;;;;21.71;44.02;95603.09;4971640;28;20616;-82
2023/09/28 08:42:43;;;;;;;9.02;3.42;;;;;;;21.26;43.66;95530.22;4947365;28;20112;-82
2023/09/28 08:45:12;;;;;;;15.45;4.28;;;;;;;21.66;43.09;95570.94;4976235;28;20053;-82
2023/09/28 08:47:47;;;;;;;13.90;3.00;;;;;;;21.47;43.19;95550.63;4976482;28;20072;-83
2023/09/28 08:50:19;;;;;;;13.60;3.83;;;;;;;21.73;43.12;95576.56;4963497;28;20045;-82
2023/09/28 08:52:45;;;;;;;22.88;3.80;;;;;;;21.72;43.41;95583.09;4975816;28;20057;-83
2023/09/28 08:55:12;;;;;;;19.70;3.92;;;;;;;21.61;43.69;95573.81;4965834;28;20065;-83
2023/09/28 08:57:40;;;;;;;16.95;3.70;;;;;;;21.62;43.61;95570.00;4980304;28;20057;-81
2023/09/28 09:00:13;;;;;;;12.38;4.15;;;;;;;21.86;43.13;95575.47;4967989;28;20042;-80
2023/09/28 09:02:42;;;;;;;14.73;3.50;;;;;;;22.10;43.40;95594.44;4979670;28;20129;-80
2023/09/28 09:05:08;;;;;;;21.52;4.10;;;;;;;22.19;43.20;95597.03;4970752;28;20065;-79
2023/09/28 09:07:36;;;;;;;12.40;3.67;;;;;;;21.92;43.55;95566.81;4968905;28;20452;-78
2023/09/28 09:10:02;;;;;;;18.85;3.95;;;;;;;21.92;43.71;95552.50;4990195;28;20401;-80
2023/09/28 09:12:32;;;;;;;14.20;4.13;;;;;;;21.69;44.75;95560.25;4966453;28;20030;-77
2023/09/28 09:14:58;;;;;;;15.43;4.25;;;;;;;21.94;44.51;95586.16;4983329;28;20041;-77
2023/09/28 09:17:32;;;;;;;17.20;3.70;;;;;;;21.87;44.00;95545.44;4967317;28;20098;-78
2023/09/28 09:19:59;;;;;;;16.95;3.85;;;;;;;21.94;44.52;95563.78;4977031;28;20091;-78
2023/09/28 09:22:27;;;;;;;18.92;4.65;;;;;;;21.90;44.92;95571.75;4979949;28;20512;-78
2023/09/28 09:24:57;;;;;;;13.68;4.32;;;;;;;21.88;45.35;95570.53;4974307;28;20049;-80
2023/09/28 09:27:31;;;;;;;11.20;3.15;;;;;;;21.68;44.51;95536.28;4969775;28;20034;-78
2023/09/28 09:30:02;;;;;;;21.67;4.25;;;;;;;21.99;45.57;95579.78;4959951;28;20064;-79
2023/09/28 09:32:28;;;;;;;;;;;;;;;21.73;45.74;95585.47;4978535;28;20034;-80
2023/09/28 09:34:54;;;;;;;9.65;3.25;;;;;;;21.72;45.24;95561.50;4958381;28;19922;-77
2023/09/28 09:37:20;;;;;;;9.63;3.33;;;;;;;21.94;44.75;95577.28;4966310;28;20073;-79
2023/09/28 09:39:46;;;;;;;16.13;4.15;;;;;;;21.92;44.79;95582.22;4970180;28;20026;-79
2023/09/28 09:42:12;;;;;;;9.98;2.95;;;;;;;21.75;45.08;95552.72;4986574;28;20030;-79
2023/09/28 09:44:38;;;;;;;17.83;4.45;;;;;;;21.64;44.93;95560.47;4987580;28;20034;-80
2023/09/28 09:47:04;;;;;;;10.52;3.20;;;;;;;21.51;45.16;95556.94;4984387;28;20022;-80
2023/09/28 09:49:29;;;;;;;11.07;3.65;;;;;;;21.55;45.05;95549.75;4986579;28;20076;-79
2023/09/28 09:51:59;;;;;;;12.30;3.35;;;;;;;21.75;44.75;95560.81;4986841;28;20035;-78
2023/09/28 09:54:25;;;;;;;7.43;3.53;;;;;;;21.86;44.76;95570.06;4967692;28;20843;-79
2023/09/28 09:56:52;;;;;;;8.82;3.92;;;;;;;22.61;44.38;95562.44;4969797;28;20026;-79
2023/09/28 09:59:20;;;;;;;26.33;4.28;;;;;;;23.36;42.43;95535.63;4985956;28;20034;-80
2023/09/28 10:01:53;;;;;;;12.35;4.10;;;;;;;24.09;41.90;95554.97;4982108;28;20030;-78
2023/09/28 10:04:20;;;;;;;12.63;3.78;;;;;;;24.41;40.31;95546.84;4988537;28;20496;-78
2023/09/28 10:06:48;;;;;;;9.10;3.55;;;;;;;24.08;39.54;95487.56;5098107;23;20050;-87
2023/09/28 10:09:21;;;;;;;17.10;3.75;;;;;;;24.47;40.35;95559.75;5002719;28;20029;-86
2023/09/28 10:11:49;;;;;;;14.40;4.03;;;;;;;23.12;41.40;95354.47;5001146;28;20045;-84
2023/09/28 10:14:21;;;;;;;16.10;3.90;;;;;;;24.26;41.60;95556.53;5025059;28;20036;-87
2023/09/28 10:16:54;;;;;;;18.17;4.03;;;;;;;24.27;42.83;95557.31;5000341;28;20078;-84
2023/09/28 10:19:24;;;;;;;16.05;4.05;;;;;;;23.99;42.71;95505.94;5016679;28;20037;-84
2023/09/28 10:21:53;;;;;;;15.77;4.25;;;;;;;24.33;42.95;95555.94;5021933;28;20033;-86
2023/09/28 10:24:29;;;;;;;16.33;4.32;;;;;;;23.82;42.22;95467.22;4998575;28;20169;-86
2023/09/28 10:29:31;;;;;;;12.98;4.35;;;;;;;24.07;42.39;95526.63;4986733;23;20112;-80
2023/09/28 10:31:57;;;;;;;11.20;3.65;;;;;;;24.10;42.03;95526.72;4960130;28;20152;-81
2023/09/28 10:34:24;;;;;;;9.85;3.58;;;;;;;23.26;42.64;95436.81;4940800;28;20038;-80
2023/09/28 10:37:18;;;;;;;18.95;4.90;;;;;;;24.15;42.60;95552.75;4955032;28;20038;-81
2023/09/28 10:39:48;;;;;;;15.75;4.55;;;;;;;23.88;42.72;95535.44;4964385;28;20088;-80
2023/09/28 10:42:17;;;;;;;15.63;4.15;;;;;;;23.76;42.55;95484.88;4976382;28;20181;-81
2023/09/28 10:44:50;;;;;;;14.50;4.20;;;;;;;24.27;42.30;95543.78;4995087;28;20085;-80
2023/09/28 10:47:16;;;;;;;16.60;4.13;;;;;;;24.37;41.83;95538.59;4982114;28;20044;-80
2023/09/28 10:49:42;;;;;;;17.83;3.85;;;;;;;24.33;41.51;95540.47;4994624;28;20053;-80
2023/09/28 10:52:10;;;;;;;11.65;3.60;;;;;;;24.16;41.57;95522.63;4977894;28;20042;-80
2023/09/28 10:54:37;;;;;;;15.10;3.90;;;;;;;24.19;41.07;95461.50;4999917;28;20134;-81
2023/09/28 10:57:02;;;;;;;14.82;3.42;;;;;;;24.20;41.01;95490.97;4982503;28;20034;-80
2023/09/28 10:59:29;;;;;;;16.63;4.30;;;;;;;24.37;41.03;95499.88;4977112;28;20040;-80
2023/09/28 11:01:54;;;;;;;12.15;4.00;;;;;;;24.74;40.57;95520.06;4973948;28;20065;-81
2023/09/28 11:04:20;;;;;;;17.67;3.65;;;;;;;24.58;41.36;95524.72;4993084;28;20149;-80
2023/09/28 11:06:45;;;;;;;14.50;3.65;;;;;;;24.23;40.77;95463.19;4975791;28;20072;-81
2023/09/28 11:09:14;;;;;;;21.27;4.45;;;;;;;24.55;41.32;95506.47;4991221;28;20543;-82
2023/09/28 11:11:43;;;;;;;11.60;4.05;;;;;;;24.18;41.41;95476.97;4972529;28;20438;-81
2023/09/28 11:14:10;;;;;;;11.57;4.18;;;;;;;24.22;41.42;95499.56;4972456;28;20425;-82
2023/09/28 11:16:42;;;;;;;24.58;4.18;;;;;;;24.05;41.59;95461.97;4974602;28;20325;-82
2023/09/28 11:19:11;;;;;;;;;;;;;;;24.53;41.82;95517.69;4984386;28;20449;-81
2023/09/28 11:21:37;;;;;;;13.32;4.00;;;;;;;24.46;41.48;95503.19;4980116;28;19926;-81
2023/09/28 11:24:03;;;;;;;12.07;4.00;;;;;;;24.54;41.60;95523.88;4970059;28;20045;-82
2023/09/28 11:26:30;;;;;;;16.17;3.58;;;;;;;23.93;41.32;95418.75;4974505;28;20033;-82
2023/09/28 11:28:58;;;;;;;8.82;3.47;;;;;;;24.72;40.90;95505.28;4990901;28;20068;-82